sensor_id;sensor_type;location;lat;lon;timestamp;temperature;humidity
9265;DHT22;4669;49.594;10.958;2023-07-30T04:28:07;19.90;99.90
9265;DHT22;4669;49.594;10.958;2023-07-30T04:33:10;20.00;99.90
9265;DHT22;4669;49.594;10.958;2023-07-30T04:38:14;20.10;99.90
9265;DHT22;4669;49.594;10.958;2023-07-30T04:43:17;20.10;99.90
9265;DHT22;4669;49.594;10.958;2023-07-30T04:48:21;20.00;99.90
9265;DHT22;4669;49.594;10.958;2023-07-30T04:53:23;20.10;99.90
9265;DHT22;4669;49.594;10.958;2023-07-30T04:58:26;20.10;99.90
9265;DHT22;4669;49.594;10.958;2023-07-30T05:03:28;20.10;99.90
9265;DHT22;4669;49.594;10.958;2023-07-30T05:08:30;20.10;99.90
9265;DHT22;4669;49.594;10.958;2023-07-30T05:13:34;20.10;99.90
9265;DHT22;4669;49.594;10.958;2023-07-30T05:18:36;20.10;99.90
9265;DHT22;4669;49.594;10.958;2023-07-30T05:23:38;20.10;99.90
9265;DHT22;4669;49.594;10.958;2023-07-30T05:28:41;20.20;99.90
9265;DHT22;4669;49.594;10.958;2023-07-30T05:33:43;20.20;99.90
9265;DHT22;4669;49.594;10.958;2023-07-30T05:38:45;20.10;99.90
9265;DHT22;4669;49.594;10.958;2023-07-30T05:43:48;20.10;99.90
9265;DHT22;4669;49.594;10.958;2023-07-30T05:48:50;20.10;99.90
9265;DHT22;4669;49.594;10.958;2023-07-30T05:53:52;20.10;99.90
9265;DHT22;4669;49.594;10.958;2023-07-30T05:58:56;20.10;99.90
9265;DHT22;4669;49.594;10.958;2023-07-30T06:03:58;20.10;99.90
9265;DHT22;4669;49.594;10.958;2023-07-30T06:08:59;20.10;99.90
9265;DHT22;4669;49.594;10.958;2023-07-30T06:14:03;20.10;99.90
9265;DHT22;4669;49.594;10.958;2023-07-30T06:19:05;20.10;99.90
9265;DHT22;4669;49.594;10.958;2023-07-30T06:24:07;20.20;99.90
9265;DHT22;4669;49.594;10.958;2023-07-30T06:29:10;20.20;99.90
9265;DHT22;4669;49.594;10.958;2023-07-30T06:34:12;20.30;99.90
9265;DHT22;4669;49.594;10.958;2023-07-30T06:39:14;20.40;99.90
9265;DHT22;4669;49.594;10.958;2023-07-30T06:44:17;20.60;99.90
9265;DHT22;4669;49.594;10.958;2023-07-30T06:49:19;20.60;99.90
9265;DHT22;4669;49.594;10.958;2023-07-30T06:54:22;20.70;99.90
9265;DHT22;4669;49.594;10.958;2023-07-30T06:59:25;20.80;99.90
9265;DHT22;4669;49.594;10.958;2023-07-30T07:04:27;20.80;99.90
9265;DHT22;4669;49.594;10.958;2023-07-30T07:09:29;20.90;99.90
9265;DHT22;4669;49.594;10.958;2023-07-30T07:14:32;20.90;99.90
9265;DHT22;4669;49.594;10.958;2023-07-30T07:19:34;21.00;99.90
9265;DHT22;4669;49.594;10.958;2023-07-30T07:24:37;20.90;99.90
9265;DHT22;4669;49.594;10.958;2023-07-30T07:29:40;21.00;99.90
9265;DHT22;4669;49.594;10.958;2023-07-30T07:34:45;21.10;99.90
9265;DHT22;4669;49.594;10.958;2023-07-30T07:39:47;21.10;99.90
9265;DHT22;4669;49.594;10.958;2023-07-30T07:44:50;21.10;99.90
9265;DHT22;4669;49.594;10.958;2023-07-30T07:49:52;21.20;99.90
9265;DHT22;4669;49.594;10.958;2023-07-30T07:54:54;21.30;99.90
9265;DHT22;4669;49.594;10.958;2023-07-30T07:59:58;21.40;99.90
9265;DHT22;4669;49.594;10.958;2023-07-30T08:05:00;21.40;99.90
9265;DHT22;4669;49.594;10.958;2023-07-30T08:10:04;21.40;99.90
9265;DHT22;4669;49.594;10.958;2023-07-30T08:15:08;21.30;99.90
9265;DHT22;4669;49.594;10.958;2023-07-30T08:20:11;21.40;99.90
9265;DHT22;4669;49.594;10.958;2023-07-30T08:25:13;21.40;99.90
9265;DHT22;4669;49.594;10.958;2023-07-30T08:30:16;21.40;99.90
9265;DHT22;4669;49.594;10.958;2023-07-30T08:35:18;21.40;99.90
9265;DHT22;4669;49.594;10.958;2023-07-30T08:40:23;21.40;99.90
9265;DHT22;4669;49.594;10.958;2023-07-30T08:45:27;21.40;99.90
9265;DHT22;4669;49.594;10.958;2023-07-30T08:50:29;21.60;99.90
9265;DHT22;4669;49.594;10.958;2023-07-30T08:55:33;21.80;99.90
9265;DHT22;4669;49.594;10.958;2023-07-30T09:00:38;21.80;99.90
9265;DHT22;4669;49.594;10.958;2023-07-30T09:05:42;21.80;99.90
9265;DHT22;4669;49.594;10.958;2023-07-30T09:10:44;21.90;99.90
9265;DHT22;4669;49.594;10.958;2023-07-30T09:15:48;21.90;99.90
9265;DHT22;4669;49.594;10.958;2023-07-30T09:20:50;22.10;99.90
9265;DHT22;4669;49.594;10.958;2023-07-30T09:25:57;22.10;99.90
9265;DHT22;4669;49.594;10.958;2023-07-30T09:31:02;22.30;99.90
9265;DHT22;4669;49.594;10.958;2023-07-30T09:36:07;22.30;99.90
9265;DHT22;4669;49.594;10.958;2023-07-30T09:41:11;22.40;99.90
9265;DHT22;4669;49.594;10.958;2023-07-30T09:46:15;22.40;99.90
9265;DHT22;4669;49.594;10.958;2023-07-30T09:51:18;22.70;99.90
9265;DHT22;4669;49.594;10.958;2023-07-30T09:56:21;22.70;99.60
9265;DHT22;4669;49.594;10.958;2023-07-30T10:01:26;22.70;99.80
9265;DHT22;4669;49.594;10.958;2023-07-30T10:06:30;22.80;99.60
9265;DHT22;4669;49.594;10.958;2023-07-30T10:11:33;22.90;99.20
9265;DHT22;4669;49.594;10.958;2023-07-30T10:16:37;23.00;98.40
9265;DHT22;4669;49.594;10.958;2023-07-30T10:21:42;22.90;97.10
9265;DHT22;4669;49.594;10.958;2023-07-30T10:26:44;22.80;98.00
9265;DHT22;4669;49.594;10.958;2023-07-30T10:31:52;22.70;99.40
9265;DHT22;4669;49.594;10.958;2023-07-30T10:36:55;22.60;99.90
9265;DHT22;4669;49.594;10.958;2023-07-30T10:41:58;22.60;99.90
9265;DHT22;4669;49.594;10.958;2023-07-30T10:47:02;22.60;99.90
9265;DHT22;4669;49.594;10.958;2023-07-30T10:52:05;22.40;99.90
9265;DHT22;4669;49.594;10.958;2023-07-30T10:57:08;22.00;99.90
9265;DHT22;4669;49.594;10.958;2023-07-30T11:02:11;22.00;99.90
9265;DHT22;4669;49.594;10.958;2023-07-30T11:07:17;22.30;99.90
9265;DHT22;4669;49.594;10.958;2023-07-30T11:12:19;22.40;99.90
9265;DHT22;4669;49.594;10.958;2023-07-30T11:17:24;22.50;99.90
9265;DHT22;4669;49.594;10.958;2023-07-30T11:22:30;22.50;99.40
9265;DHT22;4669;49.594;10.958;2023-07-30T11:27:44;22.40;99.90
9265;DHT22;4669;49.594;10.958;2023-07-30T11:32:48;22.40;99.90
9265;DHT22;4669;49.594;10.958;2023-07-30T11:37:50;22.40;99.90
9265;DHT22;4669;49.594;10.958;2023-07-30T11:42:52;22.30;99.90
9265;DHT22;4669;49.594;10.958;2023-07-30T11:48:05;22.20;99.90
9265;DHT22;4669;49.594;10.958;2023-07-30T11:53:08;22.10;99.90
9265;DHT22;4669;49.594;10.958;2023-07-30T11:58:12;22.30;99.90
9265;DHT22;4669;49.594;10.958;2023-07-30T12:03:15;22.40;99.90
9265;DHT22;4669;49.594;10.958;2023-07-30T12:08:17;22.50;99.90
9265;DHT22;4669;49.594;10.958;2023-07-30T12:13:27;22.70;99.90
9265;DHT22;4669;49.594;10.958;2023-07-30T12:18:30;22.80;98.80
9265;DHT22;4669;49.594;10.958;2023-07-30T12:23:32;22.80;98.50
9265;DHT22;4669;49.594;10.958;2023-07-30T12:28:34;22.80;98.40
9265;DHT22;4669;49.594;10.958;2023-07-30T12:33:37;23.10;98.00
9265;DHT22;4669;49.594;10.958;2023-07-30T12:38:39;23.30;97.10
9265;DHT22;4669;49.594;10.958;2023-07-30T12:43:41;23.60;95.90
9265;DHT22;4669;49.594;10.958;2023-07-30T12:48:44;23.80;94.30
9265;DHT22;4669;49.594;10.958;2023-07-30T12:53:46;23.70;93.10
9265;DHT22;4669;49.594;10.958;2023-07-30T13:05:06;24.00;91.70
9265;DHT22;4669;49.594;10.958;2023-07-30T13:10:09;24.00;92.10
9265;DHT22;4669;49.594;10.958;2023-07-30T13:15:11;24.10;92.20
9265;DHT22;4669;49.594;10.958;2023-07-30T13:20:14;24.00;91.40
9265;DHT22;4669;49.594;10.958;2023-07-30T13:25:16;23.70;92.70
9265;DHT22;4669;49.594;10.958;2023-07-30T13:30:18;23.70;93.00
9265;DHT22;4669;49.594;10.958;2023-07-30T13:35:21;23.80;92.50
9265;DHT22;4669;49.594;10.958;2023-07-30T13:40:23;23.80;92.80
9265;DHT22;4669;49.594;10.958;2023-07-30T13:45:24;24.10;92.40
9265;DHT22;4669;49.594;10.958;2023-07-30T13:50:28;24.10;91.80
9265;DHT22;4669;49.594;10.958;2023-07-30T13:55:30;24.00;92.30
9265;DHT22;4669;49.594;10.958;2023-07-30T14:00:32;23.80;92.40
9265;DHT22;4669;49.594;10.958;2023-07-30T14:05:35;23.80;93.10
9265;DHT22;4669;49.594;10.958;2023-07-30T14:10:37;23.80;92.30
9265;DHT22;4669;49.594;10.958;2023-07-30T14:15:39;23.60;91.40
9265;DHT22;4669;49.594;10.958;2023-07-30T14:20:42;23.10;92.70
9265;DHT22;4669;49.594;10.958;2023-07-30T14:25:44;22.80;93.40
9265;DHT22;4669;49.594;10.958;2023-07-30T14:30:46;23.00;93.30
9265;DHT22;4669;49.594;10.958;2023-07-30T14:35:49;23.10;92.90
9265;DHT22;4669;49.594;10.958;2023-07-30T14:40:51;23.00;92.90
9265;DHT22;4669;49.594;10.958;2023-07-30T14:45:53;23.30;92.80
9265;DHT22;4669;49.594;10.958;2023-07-30T14:50:56;23.30;92.90
9265;DHT22;4669;49.594;10.958;2023-07-30T14:55:58;23.40;92.80
9265;DHT22;4669;49.594;10.958;2023-07-30T15:01:00;23.40;93.10
9265;DHT22;4669;49.594;10.958;2023-07-30T15:06:03;23.30;92.80
9265;DHT22;4669;49.594;10.958;2023-07-30T15:11:05;23.50;91.70
9265;DHT22;4669;49.594;10.958;2023-07-30T15:16:07;23.80;91.60
9265;DHT22;4669;49.594;10.958;2023-07-30T15:21:11;23.80;90.60
9265;DHT22;4669;49.594;10.958;2023-07-30T15:26:13;23.60;91.30
9265;DHT22;4669;49.594;10.958;2023-07-30T15:31:16;24.40;91.20
9265;DHT22;4669;49.594;10.958;2023-07-30T15:36:19;24.50;90.10
9265;DHT22;4669;49.594;10.958;2023-07-30T15:41:21;24.00;90.50
9265;DHT22;4669;49.594;10.958;2023-07-30T15:46:23;24.40;90.00
9265;DHT22;4669;49.594;10.958;2023-07-30T15:51:27;24.40;88.20
9265;DHT22;4669;49.594;10.958;2023-07-30T15:56:29;23.60;88.60
9265;DHT22;4669;49.594;10.958;2023-07-30T16:01:31;24.20;88.30
9265;DHT22;4669;49.594;10.958;2023-07-30T16:06:34;24.80;85.40
9265;DHT22;4669;49.594;10.958;2023-07-30T16:11:36;25.40;84.80
9265;DHT22;4669;49.594;10.958;2023-07-30T16:16:39;26.50;82.10
9265;DHT22;4669;49.594;10.958;2023-07-30T16:21:43;26.80;79.80
9265;DHT22;4669;49.594;10.958;2023-07-30T16:26:49;26.00;78.10
9265;DHT22;4669;49.594;10.958;2023-07-30T16:31:50;24.70;80.80
9265;DHT22;4669;49.594;10.958;2023-07-30T16:36:54;24.30;81.90
9265;DHT22;4669;49.594;10.958;2023-07-30T16:41:55;24.10;82.50
9265;DHT22;4669;49.594;10.958;2023-07-30T16:46:57;24.10;81.70
9265;DHT22;4669;49.594;10.958;2023-07-30T16:52:00;24.10;80.90
9265;DHT22;4669;49.594;10.958;2023-07-30T16:57:02;23.90;80.90
9265;DHT22;4669;49.594;10.958;2023-07-30T17:02:05;23.90;81.00
9265;DHT22;4669;49.594;10.958;2023-07-30T17:07:08;24.00;78.80
9265;DHT22;4669;49.594;10.958;2023-07-30T17:12:10;23.90;78.60
9265;DHT22;4669;49.594;10.958;2023-07-30T17:17:12;23.80;78.00
9265;DHT22;4669;49.594;10.958;2023-07-30T17:22:15;23.40;78.30
9265;DHT22;4669;49.594;10.958;2023-07-30T17:27:17;23.20;78.40
9265;DHT22;4669;49.594;10.958;2023-07-30T17:32:19;23.10;78.90
9265;DHT22;4669;49.594;10.958;2023-07-30T17:37:22;22.80;78.80
9265;DHT22;4669;49.594;10.958;2023-07-30T17:42:24;22.50;79.80
9265;DHT22;4669;49.594;10.958;2023-07-30T17:47:27;22.30;80.40
9265;DHT22;4669;49.594;10.958;2023-07-30T17:52:30;22.30;80.50
9265;DHT22;4669;49.594;10.958;2023-07-30T17:57:32;22.20;80.40
9265;DHT22;4669;49.594;10.958;2023-07-30T18:02:34;22.10;80.80
9265;DHT22;4669;49.594;10.958;2023-07-30T18:07:37;22.00;81.20
9265;DHT22;4669;49.594;10.958;2023-07-30T18:12:39;21.90;81.50
9265;DHT22;4669;49.594;10.958;2023-07-30T18:17:41;21.90;81.40
9265;DHT22;4669;49.594;10.958;2023-07-30T18:22:44;21.80;81.70
9265;DHT22;4669;49.594;10.958;2023-07-30T18:27:46;21.80;82.10
9265;DHT22;4669;49.594;10.958;2023-07-30T18:32:48;21.80;82.00
9265;DHT22;4669;49.594;10.958;2023-07-30T18:37:51;21.70;82.50
9265;DHT22;4669;49.594;10.958;2023-07-30T18:42:53;21.60;82.60
9265;DHT22;4669;49.594;10.958;2023-07-30T18:47:55;21.50;82.90
9265;DHT22;4669;49.594;10.958;2023-07-30T18:53:00;21.30;83.50
9265;DHT22;4669;49.594;10.958;2023-07-30T18:58:02;21.20;83.10
9265;DHT22;4669;49.594;10.958;2023-07-30T19:03:04;21.10;83.40
9265;DHT22;4669;49.594;10.958;2023-07-30T19:08:07;21.00;83.60
9265;DHT22;4669;49.594;10.958;2023-07-30T19:13:10;20.90;84.30
9265;DHT22;4669;49.594;10.958;2023-07-30T19:18:12;20.90;84.60
9265;DHT22;4669;49.594;10.958;2023-07-30T19:23:15;20.80;84.50
9265;DHT22;4669;49.594;10.958;2023-07-30T19:28:18;20.70;84.80
9265;DHT22;4669;49.594;10.958;2023-07-30T19:33:20;20.60;85.30
9265;DHT22;4669;49.594;10.958;2023-07-30T19:38:23;20.40;86.00
9265;DHT22;4669;49.594;10.958;2023-07-30T19:43:25;20.30;87.40
9265;DHT22;4669;49.594;10.958;2023-07-30T19:48:27;20.20;88.00
9265;DHT22;4669;49.594;10.958;2023-07-30T19:53:31;20.20;89.10
9265;DHT22;4669;49.594;10.958;2023-07-30T19:58:32;20.20;89.00
9265;DHT22;4669;49.594;10.958;2023-07-30T20:03:34;20.20;90.30
9265;DHT22;4669;49.594;10.958;2023-07-30T20:08:38;20.30;90.90
9265;DHT22;4669;49.594;10.958;2023-07-30T20:13:39;20.30;90.80
9265;DHT22;4669;49.594;10.958;2023-07-30T20:18:41;20.20;91.00
9265;DHT22;4669;49.594;10.958;2023-07-30T20:23:45;20.20;91.40
9265;DHT22;4669;49.594;10.958;2023-07-30T20:28:49;20.10;91.50
9265;DHT22;4669;49.594;10.958;2023-07-30T20:33:51;20.10;91.50
9265;DHT22;4669;49.594;10.958;2023-07-30T20:38:55;20.00;92.10
9265;DHT22;4669;49.594;10.958;2023-07-30T20:43:56;20.00;92.30
9265;DHT22;4669;49.594;10.958;2023-07-30T20:48:58;19.90;91.90
9265;DHT22;4669;49.594;10.958;2023-07-30T20:54:01;19.90;91.70
9265;DHT22;4669;49.594;10.958;2023-07-30T20:59:03;19.90;91.50
9265;DHT22;4669;49.594;10.958;2023-07-30T21:04:05;19.80;91.60
9265;DHT22;4669;49.594;10.958;2023-07-30T21:09:08;19.80;91.60
9265;DHT22;4669;49.594;10.958;2023-07-30T21:14:10;19.80;91.80
9265;DHT22;4669;49.594;10.958;2023-07-30T21:19:12;19.70;91.70
9265;DHT22;4669;49.594;10.958;2023-07-30T21:24:15;19.70;91.60
9265;DHT22;4669;49.594;10.958;2023-07-30T21:29:17;19.70;91.40
9265;DHT22;4669;49.594;10.958;2023-07-30T21:34:19;19.60;91.20
9265;DHT22;4669;49.594;10.958;2023-07-30T21:39:23;19.50;91.40
9265;DHT22;4669;49.594;10.958;2023-07-30T21:44:24;19.40;91.60
9265;DHT22;4669;49.594;10.958;2023-07-30T21:49:28;19.30;91.70
9265;DHT22;4669;49.594;10.958;2023-07-30T21:54:31;19.30;91.90
9265;DHT22;4669;49.594;10.958;2023-07-30T21:59:33;19.40;91.80
